Airfield :
LOGIN :

Register | Disclaimer

   EN    FR    IT 

 










Legend :    VFR   Marginal VFR   IFR   Intensive IFR   Very Intensive IFR
Visi :
Ceiling :
>= 8 km
>= 3000ft
5 to 8 km
1000 to 3000 ft
1500m to 5 km
500 to 1000 ft
800 to 1500m
200 to 500 ft
< 800m
< 200 ft
Symbols :   Thunderstorms  Fog  Heavy snow  Heavy precipitations  Wind > 20 kt
SIGMETs :     Misc.  Thunderstorms  Icing  Turbulence  Mountain Waves  Volcanic Ashes






- Airport Elevation : 1504 ft
- IATA code : PNA


LEPP - Noain Pamplona

CURRENT METAR :
  • 252130Z 32009KT 9999 FEW035 11/08 Q1017

EXPIRED METARs :
  • 252100Z 32009KT 9999 FEW032 12/08 Q1017
  • 252030Z 33009KT CAVOK 12/08 Q1017
  • 252000Z 34012KT 9999 FEW035 12/08 Q1017
  • 251930Z 33010KT 9999 FEW035 12/08 Q1017
  • 251900Z 33011KT 9999 FEW035 13/07 Q1017

TAF TAF LEPP
Valid from the 25 at 21:00 until the 26 at 21:00 UTC


252000Z 2521/2621 33009KT 9999 FEW020 SCT035 TX20/2614Z TN07/2605Z
PROB30
TEMPO 2521/2621 FEW035TCU
PROB40
TEMPO 2603/2607 BKN010
PROB30
TEMPO 2603/2607 3000 BR



MET'MAP, your aeronautical weather chart ! - Copyright ORBIFLY December 2007 - Disclaimer

ORBIFLY MET'MAP TEAM :

Programming & Development : Alexandra Zaïnal
Original concept : Baudouin d'Aumeries
Technical & hardware support : Manuel Goepfert
Assistance : Marc-Olivier Méhu




SOURCES & CREDITS :

   NOAA